Time;durP1;ratioP1;P1;durP2;ratioP2;P2;SDS_P1;SDS_P2;PMS_P1;PMS_P2;Temp;Humidity;BMP_temperature;BMP_pressure;BME280_temperature;BME280_humidity;BME280_pressure;Samples;Min_cycle;Max_cycle;Signal;HPM_P1;HPM_P2
2022/06/12 00:01:50;;;;;;;19.92;5.55;;;16.20;99.90;;;;;;5052914;28;20027;-72
2022/06/12 00:04:17;;;;;;;26.25;5.70;;;16.20;99.90;;;;;;5053301;28;20110;-72
2022/06/12 00:06:42;;;;;;;14.52;4.38;;;16.20;99.90;;;;;;5036394;28;20036;-72
2022/06/12 00:09:09;;;;;;;19.73;6.03;;;16.20;99.90;;;;;;5041676;28;20025;-72
2022/06/12 00:11:35;;;;;;;23.30;5.28;;;16.10;99.90;;;;;;5054478;28;20060;-73
2022/06/12 00:14:04;;;;;;;21.30;4.97;;;16.10;99.90;;;;;;5053148;28;20450;-72
2022/06/12 00:16:32;;;;;;;17.75;4.45;;;16.10;99.90;;;;;;5053796;28;20021;-72
2022/06/12 00:18:58;;;;;;;17.42;5.00;;;16.10;99.90;;;;;;5053294;28;20028;-72
2022/06/12 00:21:25;;;;;;;18.45;6.15;;;16.10;99.90;;;;;;5053264;28;20386;-72
2022/06/12 00:23:55;;;;;;;24.10;6.88;;;16.10;99.90;;;;;;5053100;28;20048;-72
2022/06/12 00:26:25;;;;;;;18.77;7.28;;;16.00;99.90;;;;;;5053110;28;20089;-72
2022/06/12 00:29:10;;;;;;;24.05;6.40;;;16.00;99.90;;;;;;5054949;28;20036;-73
2022/06/12 00:31:38;;;;;;;24.30;6.78;;;16.00;99.90;;;;;;5039122;28;20033;-73
2022/06/12 00:34:04;;;;;;;26.33;7.57;;;16.00;99.90;;;;;;5057165;28;20111;-72
2022/06/12 00:36:30;;;;;;;25.42;6.68;;;16.00;99.90;;;;;;5056936;28;20052;-71
2022/06/12 00:38:56;;;;;;;23.00;7.75;;;16.00;99.90;;;;;;5057160;28;20087;-71
2022/06/12 00:41:23;;;;;;;22.42;6.45;;;16.00;99.90;;;;;;5056640;28;20017;-72
2022/06/12 00:43:49;;;;;;;23.08;6.60;;;15.90;99.90;;;;;;5057001;28;20025;-72
2022/06/12 00:46:42;;;;;;;15.07;6.00;;;15.90;99.90;;;;;;5038717;28;20044;-72
2022/06/12 00:49:33;;;;;;;19.02;6.30;;;15.90;99.90;;;;;;5057094;28;20029;-72
2022/06/12 00:52:06;;;;;;;18.95;6.45;;;15.90;99.90;;;;;;5057116;28;20432;-72
2022/06/12 00:54:33;;;;;;;22.73;5.93;;;15.80;99.90;;;;;;5056905;28;20053;-72
2022/06/12 00:57:01;;;;;;;19.88;6.25;;;15.80;99.90;;;;;;5057132;28;20029;-71
2022/06/12 00:59:39;;;;;;;21.40;5.70;;;15.80;99.90;;;;;;5057990;28;20409;-72
2022/06/12 01:02:09;;;;;;;17.17;6.15;;;15.80;99.90;;;;;;5039429;28;20040;-72
2022/06/12 01:07:23;;;;;;;22.33;5.95;;;15.70;99.90;;;;;;5058984;28;20031;-72
2022/06/12 01:09:52;;;;;;;18.85;5.53;;;15.70;99.90;;;;;;5058220;28;20021;-72
2022/06/12 01:12:22;;;;;;;17.85;5.80;;;15.70;99.90;;;;;;5057247;28;20024;-71
2022/06/12 01:14:57;;;;;;;25.27;6.10;;;15.60;99.90;;;;;;5056494;28;20031;-71
2022/06/12 01:17:24;;;;;;;19.05;4.35;;;15.60;99.90;;;;;;5056241;28;20021;-71
2022/06/12 01:19:55;;;;;;;21.85;5.72;;;15.60;99.90;;;;;;5056140;28;20048;-71
2022/06/12 01:22:57;;;;;;;16.27;5.47;;;15.60;99.90;;;;;;5056070;28;20549;-71
2022/06/12 01:26:00;;;;;;;28.52;5.43;;;15.60;99.90;;;;;;5037982;28;20074;-72
2022/06/12 01:28:37;;;;;;;18.27;5.25;;;15.50;99.90;;;;;;5056223;28;20029;-73
2022/06/12 01:31:24;;;;;;;22.63;5.68;;;15.50;99.90;;;;;;5059089;28;20044;-72
2022/06/12 01:33:50;;;;;;;23.35;6.18;;;15.50;99.90;;;;;;5064154;28;20075;-71
2022/06/12 01:36:29;;;;;;;17.27;5.53;;;15.40;99.90;;;;;;5056938;28;20029;-72
2022/06/12 01:39:03;;;;;;;15.05;4.80;;;15.40;99.90;;;;;;5055899;28;20021;-72
2022/06/12 01:41:41;;;;;;;17.45;6.00;;;15.30;99.90;;;;;;5055121;28;20025;-72
2022/06/12 01:44:25;;;;;;;17.30;4.90;;;15.30;99.90;;;;;;5055947;28;20559;-71
2022/06/12 01:47:11;;;;;;;15.75;5.25;;;15.20;99.90;;;;;;5056064;28;20474;-73
2022/06/12 01:50:07;;;;;;;19.27;5.53;;;15.20;99.90;;;;;;5037004;28;20076;-72
2022/06/12 01:52:58;;;;;;;19.23;6.22;;;15.20;99.90;;;;;;5055390;28;20029;-72
2022/06/12 01:55:33;;;;;;;21.42;6.22;;;15.20;99.90;;;;;;5055338;28;20034;-72
2022/06/12 01:58:17;;;;;;;21.50;6.82;;;15.30;99.90;;;;;;5055180;28;20025;-72
2022/06/12 02:00:49;;;;;;;24.35;6.05;;;15.20;99.90;;;;;;5055128;28;20024;-72
2022/06/12 02:03:24;;;;;;;;;;;15.10;99.90;;;;;;5055415;28;20051;-72
2022/06/12 02:06:09;;;;;;;15.15;5.05;;;15.10;99.90;;;;;;5036965;28;19909;-72
2022/06/12 02:08:34;;;;;;;20.13;6.20;;;15.10;99.90;;;;;;5037074;28;20075;-72
2022/06/12 02:14:03;;;;;;;17.53;5.77;;;15.00;99.90;;;;;;5056177;28;20036;-72
2022/06/12 02:16:33;;;;;;;20.15;5.90;;;15.00;99.90;;;;;;5061655;28;20052;-73
2022/06/12 02:19:10;;;;;;;23.60;5.72;;;15.00;99.90;;;;;;5038023;28;20032;-72
2022/06/12 02:21:52;;;;;;;20.35;5.57;;;14.90;99.90;;;;;;5055845;28;20067;-72
2022/06/12 02:24:25;;;;;;;20.23;5.93;;;14.90;99.90;;;;;;5042493;28;20035;-73
2022/06/12 02:27:02;;;;;;;15.95;4.97;;;14.90;99.90;;;;;;5062852;28;20017;-72
2022/06/12 02:29:37;;;;;;;17.38;5.15;;;14.90;99.90;;;;;;5061054;28;20056;-72
2022/06/12 02:32:08;;;;;;;24.95;5.35;;;14.90;99.90;;;;;;5062004;28;20232;-72
2022/06/12 02:34:38;;;;;;;26.23;5.70;;;14.80;99.90;;;;;;5058870;28;20029;-72
2022/06/12 02:37:14;;;;;;;19.25;5.68;;;14.80;99.90;;;;;;5055564;28;20423;-72
2022/06/12 02:39:49;;;;;;;15.50;5.38;;;14.80;99.90;;;;;;5054871;28;20028;-73
2022/06/12 02:42:25;;;;;;;18.77;5.35;;;14.70;99.90;;;;;;5054929;28;20016;-72
2022/06/12 02:45:01;;;;;;;18.90;4.97;;;14.70;99.90;;;;;;5055078;28;20025;-72
2022/06/12 02:47:32;;;;;;;14.23;5.38;;;14.60;99.90;;;;;;5054763;28;20013;-73
2022/06/12 02:49:58;;;;;;;22.17;5.95;;;14.70;99.90;;;;;;5055322;28;20434;-72
2022/06/12 02:53:09;;;;;;;26.38;6.13;;;14.60;99.90;;;;;;5036099;28;20083;-71
2022/06/12 02:55:47;;;;;;;19.15;5.05;;;14.60;99.90;;;;;;4999845;28;20034;-72
2022/06/12 02:58:33;;;;;;;22.00;5.72;;;14.50;99.90;;;;;;5060588;28;20025;-72
2022/06/12 03:01:07;;;;;;;16.42;5.38;;;14.50;99.90;;;;;;5056214;28;20025;-72
2022/06/12 03:03:54;;;;;;;21.77;5.40;;;14.50;99.90;;;;;;5054770;28;20027;-72
2022/06/12 03:06:26;;;;;;;19.63;5.63;;;14.40;99.90;;;;;;5036701;28;20052;-72
2022/06/12 03:08:55;;;;;;;14.48;4.85;;;14.40;99.90;;;;;;5054058;28;20024;-72
2022/06/12 03:11:24;;;;;;;19.67;5.13;;;14.40;99.90;;;;;;5054206;28;20033;-72
2022/06/12 03:13:52;;;;;;;18.98;5.00;;;14.40;99.90;;;;;;5053883;28;20060;-72
2022/06/12 03:16:30;;;;;;;13.35;5.07;;;14.40;99.90;;;;;;5054266;28;20029;-72
2022/06/12 03:19:11;;;;;;;16.33;4.22;;;14.40;99.90;;;;;;5053822;28;20495;-73
2022/06/12 03:21:49;;;;;;;17.92;5.05;;;14.50;99.90;;;;;;5053772;28;20021;-73
2022/06/12 03:24:20;;;;;;;24.58;5.97;;;14.50;99.90;;;;;;5053836;28;20078;-73
2022/06/12 03:26:58;;;;;;;19.85;4.85;;;14.40;99.90;;;;;;5053930;28;20470;-72
2022/06/12 03:29:31;;;;;;;20.13;5.40;;;14.40;99.90;;;;;;5054171;28;20033;-71
2022/06/12 03:32:22;;;;;;;19.85;5.10;;;14.40;99.90;;;;;;5035720;28;20059;-72
2022/06/12 03:35:05;;;;;;;14.45;5.20;;;14.40;99.90;;;;;;5054759;28;20025;-72
2022/06/12 03:37:58;;;;;;;17.48;5.40;;;14.30;99.90;;;;;;5056006;28;20024;-72
2022/06/12 03:40:33;;;;;;;29.33;5.78;;;14.40;99.90;;;;;;5056616;28;20544;-71
2022/06/12 03:43:20;;;;;;;20.40;4.93;;;14.40;99.90;;;;;;5055233;28;20462;-72
2022/06/12 03:46:03;;;;;;;21.80;4.65;;;14.40;99.90;;;;;;5055389;28;20442;-71
2022/06/12 03:48:52;;;;;;;17.65;4.65;;;14.40;99.90;;;;;;5053797;28;20035;-71
2022/06/12 03:51:33;;;;;;;14.93;4.47;;;14.40;99.90;;;;;;5035384;28;20037;-72
2022/06/12 03:54:17;;;;;;;15.98;4.80;;;14.40;99.90;;;;;;5053616;28;20028;-72
2022/06/12 03:59:55;;;;;;;25.98;4.78;;;14.40;99.90;;;;;;5053579;28;20101;-72
2022/06/12 04:02:25;;;;;;;17.92;4.05;;;14.40;99.90;;;;;;5053084;28;20580;-73
2022/06/12 04:04:53;;;;;;;20.15;4.65;;;14.40;99.90;;;;;;5057183;28;20032;-72
2022/06/12 04:07:21;;;;;;;15.70;4.40;;;14.40;99.90;;;;;;5057118;28;20108;-72
2022/06/12 04:09:51;;;;;;;22.13;5.50;;;14.40;99.90;;;;;;5057039;28;20394;-72
2022/06/12 04:12:22;;;;;;;18.73;5.22;;;14.50;99.90;;;;;;5057523;28;20021;-72
2022/06/12 04:14:58;;;;;;;26.33;4.80;;;14.50;99.90;;;;;;5057310;28;20025;-72
2022/06/12 04:17:24;;;;;;;19.55;5.75;;;14.50;99.90;;;;;;5057213;28;20028;-71
2022/06/12 04:19:59;;;;;;;14.68;4.78;;;14.50;99.90;;;;;;5057239;28;20021;-72
2022/06/12 04:22:32;;;;;;;18.23;5.35;;;14.50;99.90;;;;;;5062011;28;20024;-71
2022/06/12 04:25:07;;;;;;;21.80;5.43;;;14.40;99.90;;;;;;5065280;28;20089;-71
2022/06/12 04:27:40;;;;;;;23.98;4.95;;;14.50;99.90;;;;;;5057443;28;20021;-73
2022/06/12 04:30:20;;;;;;;24.45;5.53;;;14.50;99.90;;;;;;5057457;28;20016;-73
2022/06/12 04:32:47;;;;;;;17.08;4.85;;;14.50;99.90;;;;;;5057142;28;20035;-73
2022/06/12 04:35:12;;;;;;;17.90;5.47;;;14.50;99.90;;;;;;5056594;28;20017;-73
2022/06/12 04:37:38;;;;;;;13.02;5.32;;;14.60;99.90;;;;;;5056676;28;20448;-72
2022/06/12 04:40:06;;;;;;;18.75;5.90;;;14.60;99.90;;;;;;5056700;28;20060;-72
2022/06/12 04:42:33;;;;;;;25.27;4.93;;;14.70;99.90;;;;;;5056495;28;20057;-73
2022/06/12 04:45:00;;;;;;;15.38;5.18;;;14.70;99.90;;;;;;5038814;28;20109;-73
2022/06/12 04:47:29;;;;;;;19.02;5.30;;;14.70;99.90;;;;;;5056421;28;20020;-73
2022/06/12 04:49:55;;;;;;;17.58;5.00;;;14.70;99.90;;;;;;5056643;28;20025;-73
2022/06/12 04:52:24;;;;;;;19.80;6.38;;;14.70;99.90;;;;;;5038554;28;20478;-72
2022/06/12 04:54:50;;;;;;;18.90;5.35;;;14.80;99.90;;;;;;5056556;28;20029;-72
2022/06/12 04:57:17;;;;;;;16.75;5.93;;;14.90;99.90;;;;;;5056314;28;20027;-72
2022/06/12 04:59:45;;;;;;;14.35;4.97;;;15.00;99.90;;;;;;5057013;28;20083;-72
2022/06/12 05:02:11;;;;;;;26.50;5.50;;;15.00;99.90;;;;;;5056428;28;20017;-72
2022/06/12 05:04:37;;;;;;;20.08;5.28;;;15.10;99.90;;;;;;5057795;28;20085;-72
2022/06/12 05:07:04;;;;;;;19.92;5.40;;;15.10;99.90;;;;;;5063366;28;20419;-72
2022/06/12 05:09:33;;;;;;;12.82;4.53;;;15.10;99.90;;;;;;5059920;28;20041;-72
2022/06/12 05:11:59;;;;;;;12.00;4.32;;;15.30;99.90;;;;;;5056074;28;20025;-72
2022/06/12 05:14:25;;;;;;;13.77;5.00;;;15.40;99.90;;;;;;5037971;28;20359;-72
2022/06/12 05:16:56;;;;;;;16.58;4.68;;;15.40;99.90;;;;;;5056121;28;20032;-72
2022/06/12 05:19:26;;;;;;;22.10;4.82;;;15.50;99.90;;;;;;5056131;28;20025;-72
2022/06/12 05:21:52;;;;;;;19.98;4.15;;;15.60;99.90;;;;;;5055749;28;20032;-73
2022/06/12 05:24:18;;;;;;;14.40;4.35;;;15.60;99.90;;;;;;5056120;28;20374;-72
2022/06/12 05:26:47;;;;;;;19.00;5.25;;;15.70;99.90;;;;;;5055809;28;20017;-73
2022/06/12 05:29:23;;;;;;;16.33;4.70;;;15.80;99.90;;;;;;5056145;28;20470;-72
2022/06/12 05:31:49;;;;;;;13.60;4.97;;;15.90;99.90;;;;;;5090571;22;20047;-74
2022/06/12 05:34:15;;;;;;;18.63;5.22;;;16.00;99.90;;;;;;5045760;28;20045;-74
2022/06/12 05:36:42;;;;;;;14.73;4.47;;;16.10;99.90;;;;;;5066358;28;20023;-75
2022/06/12 05:39:09;;;;;;;20.23;4.53;;;16.20;99.90;;;;;;5059513;28;20078;-75
2022/06/12 05:41:34;;;;;;;14.18;3.63;;;16.20;99.90;;;;;;5057743;28;20029;-75
2022/06/12 05:44:00;;;;;;;17.88;4.32;;;16.40;99.90;;;;;;5058230;28;20466;-74
2022/06/12 05:46:26;;;;;;;16.63;4.15;;;16.50;99.90;;;;;;5058314;28;20075;-74
2022/06/12 05:48:52;;;;;;;23.48;5.05;;;16.50;99.90;;;;;;5058004;28;20078;-75
2022/06/12 05:51:19;;;;;;;19.50;4.13;;;16.60;99.90;;;;;;5058154;28;20104;-75
2022/06/12 05:53:46;;;;;;;12.68;3.97;;;16.70;99.90;;;;;;5058416;28;20110;-74
2022/06/12 05:56:16;;;;;;;13.48;3.65;;;16.80;99.90;;;;;;5058405;28;20458;-74
2022/06/12 05:58:42;;;;;;;19.45;4.72;;;16.90;99.90;;;;;;5058277;28;20029;-74
2022/06/12 06:01:10;;;;;;;11.60;3.65;;;16.90;99.90;;;;;;5057610;28;20025;-74
2022/06/12 06:03:36;;;;;;;19.13;4.32;;;17.00;99.90;;;;;;5057551;28;20025;-75
2022/06/12 06:06:04;;;;;;;13.82;4.35;;;17.10;99.90;;;;;;5057985;28;20379;-75
2022/06/12 06:08:29;;;;;;;13.25;4.00;;;17.20;99.90;;;;;;5058364;28;20033;-75
2022/06/12 06:10:55;;;;;;;12.68;3.80;;;17.30;99.90;;;;;;5058726;28;20504;-75
2022/06/12 06:13:21;;;;;;;18.77;3.80;;;17.40;99.90;;;;;;5059150;28;20025;-74
2022/06/12 06:15:49;;;;;;;17.33;3.72;;;17.50;99.90;;;;;;5059105;28;20064;-74
2022/06/12 06:18:14;;;;;;;12.00;4.07;;;17.60;99.90;;;;;;5041331;28;20036;-74
2022/06/12 06:20:40;;;;;;;23.08;4.03;;;17.70;99.90;;;;;;5060809;28;20021;-75
2022/06/12 06:23:07;;;;;;;16.63;4.28;;;17.80;99.90;;;;;;5060971;28;20017;-74
2022/06/12 06:25:34;;;;;;;18.92;3.88;;;17.90;99.90;;;;;;5058773;28;20021;-75
2022/06/12 06:28:00;;;;;;;14.15;3.40;;;18.00;99.90;;;;;;5058197;28;20398;-75
2022/06/12 06:30:27;;;;;;;14.55;3.38;;;18.10;99.90;;;;;;5041115;28;20029;-75
2022/06/12 06:32:53;;;;;;;15.60;3.88;;;18.20;99.90;;;;;;5058286;28;20064;-75
2022/06/12 06:35:19;;;;;;;17.17;3.45;;;18.30;99.90;;;;;;5058260;28;20466;-75
2022/06/12 06:37:46;;;;;;;16.65;3.65;;;18.40;99.90;;;;;;5063369;28;20036;-75
2022/06/12 06:40:17;;;;;;;17.13;3.58;;;18.60;99.90;;;;;;5059732;28;20081;-75
2022/06/12 06:42:43;;;;;;;15.40;3.30;;;18.70;99.90;;;;;;5041355;28;20029;-75
2022/06/12 06:47:56;;;;;;;19.30;3.92;;;18.80;99.90;;;;;;5060607;28;20441;-75
2022/06/12 06:50:22;;;;;;;15.65;3.35;;;18.90;99.90;;;;;;5043361;28;20055;-75
2022/06/12 06:52:48;;;;;;;16.33;3.55;;;19.00;99.90;;;;;;5061229;28;20028;-75
2022/06/12 06:55:14;;;;;;;16.90;3.28;;;19.10;99.90;;;;;;5061608;28;20025;-75
2022/06/12 06:57:42;;;;;;;12.88;3.60;;;19.20;99.90;;;;;;5065645;28;20128;-75
2022/06/12 07:00:12;;;;;;;18.95;3.63;;;19.20;99.90;;;;;;5066615;28;20029;-75
2022/06/12 07:02:39;;;;;;;17.63;4.00;;;19.30;99.90;;;;;;5047028;28;20032;-75
2022/06/12 07:05:05;;;;;;;18.08;3.90;;;19.40;99.90;;;;;;5065131;28;20028;-75
2022/06/12 07:07:32;;;;;;;17.08;3.45;;;19.40;99.90;;;;;;5065820;28;20359;-75
2022/06/12 07:09:59;;;;;;;13.40;3.20;;;19.40;99.90;;;;;;5066619;28;20021;-76
2022/06/12 07:12:24;;;;;;;20.10;4.13;;;19.50;99.90;;;;;;5043553;28;20111;-75
2022/06/12 07:14:50;;;;;;;19.15;4.25;;;19.60;99.90;;;;;;5062881;28;20021;-74
2022/06/12 07:17:17;;;;;;;14.20;3.00;;;19.70;99.90;;;;;;5062392;28;20104;-75
2022/06/12 07:19:43;;;;;;;15.18;3.35;;;19.70;99.90;;;;;;5058172;28;20029;-75
2022/06/12 07:22:09;;;;;;;12.40;3.15;;;19.80;99.90;;;;;;5056786;28;20521;-75
2022/06/12 07:24:34;;;;;;;10.73;2.90;;;19.90;99.90;;;;;;5056523;28;20029;-75
2022/06/12 07:27:00;;;;;;;15.55;4.28;;;20.00;99.90;;;;;;5055944;28;20035;-75
2022/06/12 07:29:26;;;;;;;12.95;3.17;;;20.10;99.90;;;;;;5038889;28;20599;-76
2022/06/12 07:31:51;;;;;;;12.73;2.95;;;20.20;99.90;;;;;;5057073;28;20080;-73
2022/06/12 07:34:17;;;;;;;13.50;3.28;;;20.20;99.90;;;;;;5056641;28;20462;-74
2022/06/12 07:36:46;;;;;;;14.05;3.78;;;20.30;99.90;;;;;;5058410;28;20028;-74
2022/06/12 07:39:16;;;;;;;13.07;2.83;;;20.50;99.90;;;;;;5056846;28;20029;-74
2022/06/12 07:41:42;;;;;;;9.75;3.30;;;20.50;99.90;;;;;;5055815;28;20020;-74
2022/06/12 07:44:08;;;;;;;14.10;2.90;;;20.60;99.90;;;;;;5055636;28;20071;-75
2022/06/12 07:46:34;;;;;;;12.48;3.10;;;20.70;99.90;;;;;;5037950;28;20030;-75
2022/06/12 07:49:01;;;;;;;10.48;2.55;;;20.70;99.90;;;;;;5056057;28;20044;-75
2022/06/12 07:51:26;;;;;;;9.20;2.30;;;20.70;99.90;;;;;;5055920;28;20056;-75
2022/06/12 07:53:53;;;;;;;11.88;3.20;;;20.80;99.90;;;;;;5055389;28;20025;-76
2022/06/12 07:56:22;;;;;;;11.73;3.30;;;20.80;99.90;;;;;;5055304;28;20021;-75
2022/06/12 07:58:47;;;;;;;12.70;3.05;;;21.00;99.90;;;;;;5037183;28;20036;-75
2022/06/12 08:01:17;;;;;;;13.73;3.30;;;21.10;99.90;;;;;;5055679;28;20029;-75
2022/06/12 08:03:43;;;;;;;12.07;3.38;;;21.20;99.90;;;;;;5055641;28;20024;-76
2022/06/12 08:06:09;;;;;;;7.40;2.55;;;21.30;99.90;;;;;;5055580;28;20021;-76
2022/06/12 08:08:35;;;;;;;8.95;2.92;;;21.50;99.90;;;;;;5055651;28;20096;-76
2022/06/12 08:11:01;;;;;;;11.60;2.45;;;21.60;99.90;;;;;;5055720;28;20442;-76
2022/06/12 08:13:28;;;;;;;6.15;2.28;;;21.70;99.90;;;;;;5037390;28;20137;-76
2022/06/12 08:15:54;;;;;;;11.95;3.10;;;21.70;99.90;;;;;;5055973;28;20021;-75
2022/06/12 08:18:21;;;;;;;8.40;2.85;;;21.80;99.90;;;;;;5039941;28;20185;-76
2022/06/12 08:20:51;;;;;;;10.60;2.22;;;21.90;99.90;;;;;;5055319;28;20078;-75
2022/06/12 08:23:27;;;;;;;10.30;3.13;;;21.90;99.90;;;;;;5055738;28;20088;-75
2022/06/12 08:25:57;;;;;;;6.40;1.85;;;21.80;99.90;;;;;;5055983;28;20108;-76
2022/06/12 08:28:26;;;;;;;6.97;2.28;;;21.80;99.90;;;;;;5056386;28;20084;-75
2022/06/12 08:30:52;;;;;;;10.65;2.47;;;21.80;99.90;;;;;;5054961;28;20025;-77
2022/06/12 08:33:18;;;;;;;8.10;1.77;;;21.80;99.90;;;;;;5038207;28;20029;-75
2022/06/12 08:35:44;;;;;;;5.32;2.10;;;21.90;99.90;;;;;;5059835;28;20055;-75
2022/06/12 08:38:11;;;;;;;6.93;1.85;;;22.00;99.90;;;;;;5062570;28;20028;-76
2022/06/12 08:40:46;;;;;;;6.30;1.77;;;22.00;99.90;;;;;;5045620;28;20021;-75
2022/06/12 08:43:47;;;;;;;10.65;2.22;;;22.10;99.90;;;;;;5055857;28;20017;-76
2022/06/12 08:46:24;;;;;;;6.35;1.95;;;22.20;99.90;;;;;;5024622;28;20116;-77
2022/06/12 08:49:10;;;;;;;6.90;1.75;;;22.20;99.90;;;;;;5056606;28;20494;-76
2022/06/12 08:52:08;;;;;;;9.73;2.17;;;22.30;99.90;;;;;;5055103;28;20092;-76
2022/06/12 08:54:46;;;;;;;9.40;2.10;;;22.30;99.90;;;;;;5020429;28;20033;-75
2022/06/12 08:57:16;;;;;;;8.77;2.00;;;22.40;99.90;;;;;;5055995;28;20127;-75
2022/06/12 09:00:06;;;;;;;8.32;1.60;;;22.50;99.90;;;;;;5042529;28;20071;-76
2022/06/12 09:02:37;;;;;;;6.25;1.67;;;22.50;99.90;;;;;;5059987;28;20478;-76
2022/06/12 09:05:06;;;;;;;7.50;1.80;;;22.60;99.90;;;;;;5040992;28;20537;-76
2022/06/12 09:07:54;;;;;;;9.80;2.13;;;22.60;99.90;;;;;;5042223;28;20101;-76
2022/06/12 09:10:40;;;;;;;5.20;1.67;;;22.70;99.90;;;;;;5060206;28;20060;-75
2022/06/12 09:13:06;;;;;;;6.07;2.60;;;22.70;99.90;;;;;;5058154;28;20099;-76
2022/06/12 09:15:41;;;;;;;8.43;2.10;;;22.70;99.90;;;;;;5057810;28;20021;-77
2022/06/12 09:18:37;;;;;;;8.07;1.85;;;22.80;99.90;;;;;;5041919;28;20113;-76
2022/06/12 09:21:06;;;;;;;6.13;1.80;;;22.90;99.90;;;;;;5060028;28;20024;-77
2022/06/12 09:23:37;;;;;;;6.95;1.40;;;22.90;99.90;;;;;;5041783;28;20025;-77
2022/06/12 09:26:38;;;;;;;7.78;1.83;;;22.90;99.90;;;;;;5053197;28;20017;-77
2022/06/12 09:29:35;;;;;;;9.02;1.85;;;23.00;99.90;;;;;;5047167;28;20045;-76
2022/06/12 09:32:12;;;;;;;12.40;2.05;;;23.00;99.90;;;;;;5046512;28;20067;-77
2022/06/12 09:35:00;;;;;;;5.32;1.95;;;23.10;99.90;;;;;;5046684;28;20024;-76
2022/06/12 09:40:21;;;;;;;8.33;1.83;;;23.00;99.90;;;;;;5053132;28;20064;-77
2022/06/12 09:43:34;;;;;;;8.38;1.90;;;23.10;99.90;;;;;;5036243;28;20025;-76
2022/06/12 09:46:26;;;;;;;6.82;1.60;;;23.30;99.90;;;;;;4944711;29;20023;-77
2022/06/12 09:49:31;;;;;;;9.57;1.90;;;23.30;99.90;;;;;;5045877;28;20021;-77
2022/06/12 09:52:12;;;;;;;7.55;2.10;;;23.70;99.90;;;;;;5052106;28;20035;-77
2022/06/12 09:54:57;;;;;;;8.48;1.60;;;23.80;99.90;;;;;;5054591;28;20081;-77
2022/06/12 09:57:42;;;;;;;8.15;2.45;;;23.60;99.90;;;;;;5059123;28;20033;-77
2022/06/12 10:00:11;;;;;;;6.07;1.88;;;23.70;99.90;;;;;;5057543;28;20025;-77
2022/06/12 10:02:52;;;;;;;7.97;1.77;;;23.40;99.90;;;;;;5057563;28;20025;-78
2022/06/12 10:05:31;;;;;;;7.75;1.75;;;23.30;99.90;;;;;;5040326;28;20032;-77
2022/06/12 10:08:09;;;;;;;9.38;1.92;;;23.40;99.90;;;;;;5033186;28;20033;-77
2022/06/12 10:10:57;;;;;;;9.20;2.28;;;23.40;99.90;;;;;;5038797;28;20368;-78
2022/06/12 10:13:34;;;;;;;9.93;1.95;;;23.30;99.90;;;;;;5039177;28;20045;-77
2022/06/12 10:16:05;;;;;;;8.68;2.10;;;23.30;99.90;;;;;;5040347;28;20030;-78
2022/06/12 10:18:41;;;;;;;11.18;2.38;;;23.20;99.90;;;;;;5040363;28;20071;-78
2022/06/12 10:21:12;;;;;;;6.55;2.08;;;23.10;99.90;;;;;;5043483;28;20372;-76
2022/06/12 10:23:39;;;;;;;8.50;1.88;;;23.10;99.90;;;;;;5036654;28;20467;-77
2022/06/12 10:26:21;;;;;;;8.82;2.40;;;23.10;99.90;;;;;;5055116;28;20029;-76
2022/06/12 10:28:59;;;;;;;10.02;2.33;;;23.20;99.90;;;;;;5058026;28;20059;-76
2022/06/12 10:31:24;;;;;;;6.07;1.67;;;23.20;99.90;;;;;;5040190;28;20106;-77
2022/06/12 10:33:50;;;;;;;11.38;2.05;;;23.30;99.90;;;;;;5058069;28;20423;-77
2022/06/12 10:36:39;;;;;;;6.00;1.60;;;23.30;99.90;;;;;;5051643;28;20025;-77
2022/06/12 10:39:11;;;;;;;13.65;2.05;;;23.30;99.90;;;;;;5038390;28;20032;-77
2022/06/12 10:41:45;;;;;;;10.35;1.75;;;23.40;99.90;;;;;;5037471;28;20017;-77
2022/06/12 10:44:35;;;;;;;10.05;2.40;;;23.50;99.90;;;;;;5020294;28;20097;-77
2022/06/12 10:47:17;;;;;;;7.05;1.60;;;23.60;99.90;;;;;;5036882;28;20491;-77
2022/06/12 10:49:44;;;;;;;10.65;2.10;;;23.60;99.90;;;;;;5053821;28;20033;-78
2022/06/12 10:52:21;;;;;;;10.27;1.92;;;23.80;99.90;;;;;;5059107;28;20039;-77
2022/06/12 10:54:50;;;;;;;7.05;2.28;;;24.00;99.90;;;;;;5060222;28;20085;-77
2022/06/12 10:57:31;;;;;;;9.55;1.98;;;24.20;99.90;;;;;;5056823;28;20039;-77
2022/06/12 11:00:10;;;;;;;8.95;2.38;;;24.40;99.90;;;;;;5060874;28;20032;-76
2022/06/12 11:03:12;;;;;;;7.60;2.10;;;24.40;99.90;;;;;;5051883;28;20030;-77
2022/06/12 11:05:48;;;;;;;;;;;24.40;99.90;;;;;;4983036;28;20026;-76
2022/06/12 11:08:39;;;;;;;8.35;2.38;;;24.00;99.90;;;;;;5034209;28;19915;-79
2022/06/12 11:11:10;;;;;;;6.97;2.35;;;23.90;99.90;;;;;;5023176;28;20022;-77
2022/06/12 11:14:03;;;;;;;8.70;2.55;;;23.80;99.90;;;;;;5042104;28;20097;-78
2022/06/12 11:17:02;;;;;;;9.45;2.42;;;23.80;99.90;;;;;;5026278;28;20025;-77
2022/06/12 11:19:46;;;;;;;11.68;2.80;;;23.70;99.90;;;;;;5043921;28;20343;-77
2022/06/12 11:22:53;;;;;;;5.43;2.20;;;23.70;99.90;;;;;;5025777;28;20017;-76
2022/06/12 11:25:40;;;;;;;7.18;1.95;;;23.70;99.90;;;;;;5010616;28;20024;-75
2022/06/12 11:28:26;;;;;;;7.45;1.95;;;23.80;99.90;;;;;;5020636;28;20036;-78
2022/06/12 11:31:36;;;;;;;6.82;1.63;;;23.90;99.90;;;;;;5038292;28;20032;-76
2022/06/12 11:34:36;;;;;;;13.02;2.40;;;24.00;99.90;;;;;;5054993;22;20133;-74
2022/06/12 11:37:35;;;;;;;6.00;1.85;;;24.00;99.90;;;;;;5053994;28;20016;-73
2022/06/12 11:40:12;;;;;;;8.93;2.10;;;24.00;99.90;;;;;;5028687;28;20051;-73
2022/06/12 11:43:18;;;;;;;9.93;2.35;;;24.00;99.90;;;;;;5035730;28;20477;-74
2022/06/12 11:45:49;;;;;;;10.20;2.45;;;24.10;99.90;;;;;;4996997;28;20578;-74
2022/06/12 11:48:25;;;;;;;8.25;2.30;;;24.20;99.90;;;;;;5015290;28;20033;-73
2022/06/12 11:51:45;;;;;;;13.38;2.80;;;24.50;99.90;;;;;;5015304;28;20088;-73
2022/06/12 11:54:51;;;;;;;8.35;2.30;;;24.40;99.90;;;;;;4954708;28;20046;-73
2022/06/12 11:57:46;;;;;;;7.50;2.10;;;24.50;99.90;;;;;;4961354;28;20050;-74
2022/06/12 12:00:22;;;;;;;7.20;2.45;;;24.50;99.90;;;;;;5015440;28;20033;-74
2022/06/12 12:03:31;;;;;;;9.82;2.28;;;24.70;99.90;;;;;;5019124;28;20434;-73
2022/06/12 12:06:04;;;;;;;13.27;2.58;;;24.60;99.90;;;;;;5031079;28;20025;-72
2022/06/12 12:08:51;;;;;;;16.13;3.28;;;24.30;99.90;;;;;;5038511;28;20109;-72
2022/06/12 12:11:25;;;;;;;8.65;2.45;;;24.10;99.90;;;;;;5043828;28;20498;-73
2022/06/12 12:13:55;;;;;;;11.82;2.97;;;24.10;99.90;;;;;;5032553;28;20026;-73
2022/06/12 12:16:44;;;;;;;8.17;2.43;;;24.10;99.90;;;;;;5034706;28;20021;-73
2022/06/12 12:19:22;;;;;;;10.05;2.28;;;23.90;99.90;;;;;;5031814;28;20044;-75
2022/06/12 12:21:56;;;;;;;14.00;2.85;;;23.70;99.90;;;;;;5031893;28;20116;-74
2022/06/12 12:24:46;;;;;;;14.27;2.78;;;23.60;99.90;;;;;;5033874;28;20104;-74
2022/06/12 12:27:24;;;;;;;11.23;2.33;;;23.60;99.90;;;;;;5037409;28;20032;-74
2022/06/12 12:29:51;;;;;;;9.05;2.42;;;23.40;99.90;;;;;;5040488;28;20037;-73
2022/06/12 12:32:16;;;;;;;8.70;2.22;;;23.40;99.90;;;;;;5040626;28;20163;-74
2022/06/12 12:34:45;;;;;;;14.10;2.90;;;23.50;99.90;;;;;;5020341;28;20026;-73
2022/06/12 12:42:43;;;;;;;14.07;3.17;;;23.00;99.90;;;;;;5046464;28;20056;-75
2022/06/12 12:45:14;;;;;;;11.18;2.90;;;22.70;99.90;;;;;;5048772;28;20017;-74
2022/06/12 12:47:40;;;;;;;9.52;2.40;;;22.70;99.90;;;;;;5048159;28;20021;-74
2022/06/12 12:50:07;;;;;;;8.05;2.20;;;22.80;99.90;;;;;;5054290;28;20137;-72
2022/06/12 12:52:48;;;;;;;11.75;2.20;;;22.90;99.90;;;;;;5051900;28;20021;-75
2022/06/12 12:55:38;;;;;;;6.93;1.95;;;23.10;99.90;;;;;;5036891;28;20087;-76
2022/06/12 12:58:24;;;;;;;14.57;3.13;;;23.40;99.90;;;;;;5033169;28;20036;-76
2022/06/12 13:01:20;;;;;;;8.43;2.53;;;23.60;99.90;;;;;;5037261;28;20017;-76
2022/06/12 13:03:58;;;;;;;6.07;2.03;;;23.70;99.90;;;;;;5040270;28;20037;-77
2022/06/12 13:07:06;;;;;;;7.63;2.10;;;23.80;99.90;;;;;;5038541;28;20108;-76
2022/06/12 13:10:01;;;;;;;13.10;2.53;;;24.10;99.90;;;;;;5038720;28;20030;-77
2022/06/12 13:12:55;;;;;;;6.00;2.15;;;24.30;99.90;;;;;;5039005;28;20025;-77
2022/06/12 13:15:30;;;;;;;12.00;2.50;;;24.20;99.90;;;;;;5039325;28;20032;-78
2022/06/12 13:17:55;;;;;;;8.95;2.30;;;24.20;99.90;;;;;;5040266;28;20081;-74
2022/06/12 13:20:47;;;;;;;12.38;2.30;;;24.20;99.90;;;;;;5034888;28;20091;-75
2022/06/12 13:23:36;;;;;;;6.57;1.80;;;24.30;99.90;;;;;;5020787;28;20018;-76
2022/06/12 13:26:08;;;;;;;7.70;2.25;;;24.30;99.90;;;;;;4990788;28;20033;-75
2022/06/12 13:28:35;;;;;;;7.88;2.35;;;24.40;99.90;;;;;;5036099;28;20053;-76
2022/06/12 13:31:03;;;;;;;13.15;2.20;;;24.60;99.90;;;;;;5036931;28;20022;-76
2022/06/12 13:33:34;;;;;;;6.88;2.10;;;24.70;99.90;;;;;;5032567;28;20028;-76
2022/06/12 13:36:20;;;;;;;;;;;24.50;99.90;;;;;;5033467;28;20387;-75
2022/06/12 13:38:48;;;;;;;11.23;2.33;;;24.50;99.90;;;;;;5039334;28;19909;-75
2022/06/12 13:41:27;;;;;;;6.47;2.20;;;24.40;99.90;;;;;;5038489;28;20017;-75